Time;durP1;ratioP1;P1;durP2;ratioP2;P2;SDS_P1;SDS_P2;PMS_P1;PMS_P2;Temp;Humidity;BMP_temperature;BMP_pressure;BME280_temperature;BME280_humidity;BME280_pressure;Samples;Min_cycle;Max_cycle;Signal;HPM_P1;HPM_P2
2021/07/05 06:44:47;;;;;;;22.42;16.15;;;;;;;19.01;97.44;97484.53;1862506;76;22646;-60
2021/07/05 06:47:15;;;;;;;15.28;13.55;;;;;;;19.02;97.14;97486.91;1813539;78;20870;-58
2021/07/05 06:49:42;;;;;;;13.80;12.40;;;;;;;19.05;96.61;97492.95;1828010;78;21351;-60
2021/07/05 06:52:10;;;;;;;15.05;12.25;;;;;;;19.07;96.49;97493.41;1827820;78;20963;-60
2021/07/05 06:54:36;;;;;;;14.07;12.20;;;;;;;19.09;96.20;97488.41;1826919;78;21478;-60
2021/07/05 06:57:04;;;;;;;12.93;11.55;;;;;;;19.15;95.96;97485.41;1827622;78;20836;-60
2021/07/05 06:59:31;;;;;;;12.88;11.45;;;;;;;19.24;95.78;97487.33;1827904;78;20873;-60
2021/07/05 07:01:58;;;;;;;14.63;11.03;;;;;;;19.35;95.37;97496.47;1827830;78;21023;-60
2021/07/05 07:04:25;;;;;;;11.97;10.60;;;;;;;19.49;94.95;97494.05;1827931;78;21312;-60
2021/07/05 07:06:53;;;;;;;11.60;10.25;;;;;;;19.66;94.44;97499.03;1828016;78;20959;-60
2021/07/05 07:09:20;;;;;;;11.48;10.13;;;;;;;19.75;93.82;97496.86;1827767;78;20959;-60
2021/07/05 07:11:48;;;;;;;11.97;10.78;;;;;;;19.84;93.30;97493.33;1827971;78;20852;-60
2021/07/05 07:14:19;;;;;;;11.68;10.48;;;;;;;19.96;92.55;97500.52;1824462;78;20974;-60
2021/07/05 07:16:52;;;;;;;14.33;11.50;;;;;;;20.08;91.56;97501.13;1824060;78;20892;-60
2021/07/05 07:19:16;;;;;;;13.30;10.88;;;;;;;20.18;91.05;97498.38;1821713;78;20966;-60
2021/07/05 07:21:49;;;;;;;13.93;10.98;;;;;;;20.28;89.96;97502.64;1832236;77;20906;-60
2021/07/05 07:24:19;;;;;;;12.70;11.22;;;;;;;20.37;89.46;97507.24;1838702;77;20915;-60
2021/07/05 07:26:46;;;;;;;12.45;10.55;;;;;;;20.44;88.98;97506.59;1831875;77;21067;-59
2021/07/05 07:29:14;;;;;;;12.55;11.20;;;;;;;20.51;88.28;97509.42;1833160;77;20911;-59
2021/07/05 07:31:42;;;;;;;15.48;10.75;;;;;;;20.52;88.00;97509.61;1834290;77;21497;-60
2021/07/05 07:34:09;;;;;;;12.98;11.68;;;;;;;20.57;87.57;97509.87;1831020;78;20903;-60
2021/07/05 07:36:36;;;;;;;12.47;11.28;;;;;;;20.63;87.40;97508.42;1830268;78;20860;-59
2021/07/05 07:39:10;;;;;;;13.43;10.70;;;;;;;20.71;87.00;97510.08;1831127;78;21155;-59
2021/07/05 07:41:35;;;;;;;12.68;11.30;;;;;;;20.76;86.63;97512.48;1829922;78;20884;-60
2021/07/05 07:44:03;;;;;;;12.18;11.00;;;;;;;20.82;86.40;97517.83;1827576;78;20950;-60
2021/07/05 07:46:30;;;;;;;13.60;11.03;;;;;;;20.85;85.86;97519.80;1827972;78;20927;-59
2021/07/05 07:48:57;;;;;;;11.43;10.32;;;;;;;20.84;85.49;97519.61;1828336;78;20872;-60
2021/07/05 07:51:25;;;;;;;10.82;9.70;;;;;;;20.84;85.40;97517.67;1827957;78;21110;-60
2021/07/05 07:53:54;;;;;;;10.53;9.43;;;;;;;20.86;85.13;97520.02;1827935;78;20908;-60
2021/07/05 07:56:20;;;;;;;10.45;9.40;;;;;;;20.83;84.35;97520.17;1827487;78;21021;-59
2021/07/05 07:58:48;;;;;;;10.18;9.18;;;;;;;20.80;84.56;97518.18;1827458;78;20964;-59
2021/07/05 08:01:15;;;;;;;10.48;8.53;;;;;;;20.88;84.76;97517.70;1827516;78;20868;-59
2021/07/05 08:03:42;;;;;;;8.58;7.65;;;;;;;21.01;84.48;97513.59;1827342;78;21039;-59
2021/07/05 08:06:11;;;;;;;7.75;7.05;;;;;;;21.16;83.74;97507.22;1808960;78;21014;-59
2021/07/05 08:08:38;;;;;;;9.38;6.87;;;;;;;21.27;83.42;97510.08;1827425;78;20900;-59
2021/07/05 08:11:06;;;;;;;9.65;7.25;;;;;;;21.39;83.27;97510.60;1827357;78;21403;-59
2021/07/05 08:13:34;;;;;;;8.70;6.58;;;;;;;21.53;82.98;97518.94;1805461;78;20884;-60
2021/07/05 08:16:02;;;;;;;8.38;6.75;;;;;;;21.61;82.08;97513.78;1795344;80;21107;-60
2021/07/05 08:18:33;;;;;;;7.67;6.47;;;;;;;21.65;81.82;97512.44;1812313;78;20884;-60
2021/07/05 08:21:00;;;;;;;9.83;6.10;;;;;;;21.68;81.79;97515.80;1827500;78;20959;-60
2021/07/05 08:23:27;;;;;;;7.70;6.33;;;;;;;21.71;81.22;97515.84;1827140;78;21435;-59
2021/07/05 08:25:58;;;;;;;6.30;5.70;;;;;;;21.68;80.65;97511.70;1827826;78;20832;-60
2021/07/05 08:28:27;;;;;;;7.30;5.80;;;;;;;21.72;80.95;97517.39;1788540;80;21103;-59
2021/07/05 08:30:57;;;;;;;5.75;5.22;;;;;;;21.83;80.99;97518.09;1788628;80;20978;-59
2021/07/05 08:33:24;;;;;;;7.75;5.60;;;;;;;21.92;80.60;97513.14;1788693;80;20860;-60
2021/07/05 08:35:50;;;;;;;5.47;4.97;;;;;;;21.94;79.96;97513.55;1788465;80;20927;-60
2021/07/05 08:38:17;;;;;;;8.08;5.25;;;;;;;21.96;79.52;97512.02;1788535;80;21362;-60
2021/07/05 08:40:44;;;;;;;5.87;4.85;;;;;;;22.07;79.25;97513.48;1788470;80;21113;-60
2021/07/05 08:43:10;;;;;;;5.75;4.40;;;;;;;22.17;78.28;97508.68;1787523;80;21453;-60
2021/07/05 08:45:39;;;;;;;5.62;4.50;;;;;;;22.34;78.14;97506.69;1780561;80;20876;-60
2021/07/05 08:48:06;;;;;;;5.85;4.70;;;;;;;22.51;77.88;97512.07;1780284;80;20892;-60
2021/07/05 08:50:32;;;;;;;5.75;4.47;;;;;;;22.67;77.27;97513.39;1727699;80;21015;-59
2021/07/05 08:52:59;;;;;;;5.95;5.17;;;;;;;22.72;76.66;97513.03;1779208;80;22406;-60
2021/07/05 08:55:28;;;;;;;4.97;4.58;;;;;;;22.79;75.86;97513.66;1780310;80;20957;-60
2021/07/05 08:57:55;;;;;;;4.80;4.33;;;;;;;22.85;75.72;97507.44;1780438;80;20910;-59
2021/07/05 09:00:24;;;;;;;5.85;4.60;;;;;;;23.00;75.46;97504.22;1780374;80;20977;-60
2021/07/05 09:02:52;;;;;;;9.33;4.65;;;;;;;23.08;74.87;97505.83;1780312;80;21013;-60
2021/07/05 09:05:19;;;;;;;7.58;5.15;;;;;;;23.02;75.02;97507.34;1780458;80;21118;-61
2021/07/05 09:08:09;;;;;;;6.33;5.08;;;;;;;22.93;74.77;97504.97;1780302;80;20962;-60
2021/07/05 09:10:52;;;;;;;5.03;4.62;;;;;;;22.83;75.04;97505.68;1780453;80;20870;-60
2021/07/05 09:13:26;;;;;;;6.85;4.70;;;;;;;22.76;75.06;97517.92;1780624;80;20970;-59
2021/07/05 09:15:58;;;;;;;5.30;4.78;;;;;;;22.81;75.11;97515.42;1780423;80;20855;-60
2021/07/05 09:18:30;;;;;;;4.80;4.33;;;;;;;22.88;74.58;97510.78;1780704;80;21419;-60
2021/07/05 09:21:20;;;;;;;5.20;4.70;;;;;;;22.94;74.51;97514.70;1779853;80;20830;-60
2021/07/05 09:24:04;;;;;;;5.58;5.08;;;;;;;23.10;74.33;97513.05;1773322;80;20952;-61
2021/07/05 09:26:36;;;;;;;7.65;5.50;;;;;;;23.29;74.00;97510.59;1779017;80;20987;-59
2021/07/05 09:29:17;;;;;;;5.47;4.97;;;;;;;23.35;73.42;97510.44;1779390;80;20947;-60
2021/07/05 09:31:53;;;;;;;8.70;5.90;;;;;;;23.32;72.87;97513.93;1751884;80;21538;-59
2021/07/05 09:34:35;;;;;;;5.60;4.87;;;;;;;23.24;72.74;97502.77;1822907;78;20951;-60
2021/07/05 09:37:26;;;;;;;6.20;4.83;;;;;;;23.19;73.32;97509.37;1821668;78;20963;-59
2021/07/05 09:40:07;;;;;;;6.70;4.87;;;;;;;23.33;73.02;97505.91;1788014;80;21459;-61
2021/07/05 09:42:44;;;;;;;9.53;5.45;;;;;;;23.48;72.83;97504.84;1787989;80;20864;-60
2021/07/05 09:45:30;;;;;;;5.87;4.60;;;;;;;23.49;72.46;97509.13;1819715;77;21055;-60
2021/07/05 09:48:19;;;;;;;4.95;4.45;;;;;;;23.38;72.61;97509.10;1844105;77;20887;-61
2021/07/05 09:50:59;;;;;;;6.72;4.70;;;;;;;23.27;72.38;97512.32;1843626;77;21471;-60
2021/07/05 09:53:44;;;;;;;5.53;4.70;;;;;;;23.27;72.62;97512.93;1831609;77;20979;-61
2021/07/05 09:56:23;;;;;;;5.87;4.75;;;;;;;23.30;72.40;97512.14;1846709;77;21478;-60
2021/07/05 09:58:53;;;;;;;5.00;4.50;;;;;;;23.26;72.58;97507.25;1836890;77;21094;-60
2021/07/05 10:01:42;;;;;;;6.80;4.92;;;;;;;23.34;72.59;97504.77;1825120;77;21502;-60
2021/07/05 10:04:12;;;;;;;5.58;4.87;;;;;;;23.46;72.51;97502.47;1834887;77;20912;-60
2021/07/05 10:06:43;;;;;;;4.60;4.20;;;;;;;23.62;71.67;97496.68;1823367;77;21022;-60
2021/07/05 10:09:11;;;;;;;4.70;4.05;;;;;;;23.81;70.99;97497.09;1805908;77;21532;-60
2021/07/05 10:11:38;;;;;;;4.25;3.85;;;;;;;24.02;69.61;97499.09;1832889;77;21122;-60
2021/07/05 10:14:21;;;;;;;6.15;4.60;;;;;;;24.05;69.70;97502.39;1839733;77;20908;-60
2021/07/05 10:16:49;;;;;;;4.78;4.25;;;;;;;24.15;69.77;97509.87;1821918;77;20975;-59
2021/07/05 10:19:17;;;;;;;5.83;4.10;;;;;;;24.34;69.10;97501.27;1843840;77;20865;-59
2021/07/05 10:21:44;;;;;;;5.40;3.80;;;;;;;24.45;68.27;97499.30;1843917;77;20978;-59
2021/07/05 10:24:11;;;;;;;4.42;4.03;;;;;;;24.48;68.30;97497.16;1843965;77;21100;-59
2021/07/05 10:26:39;;;;;;;4.25;3.85;;;;;;;24.45;68.29;97496.56;1844164;77;20873;-58
2021/07/05 10:29:07;;;;;;;4.12;3.72;;;;;;;24.42;68.31;97491.86;1843019;77;20865;-59
2021/07/05 10:31:34;;;;;;;4.35;3.95;;;;;;;24.37;67.82;97493.66;1844233;77;21394;-59
2021/07/05 10:34:02;;;;;;;4.65;3.83;;;;;;;24.36;67.66;97488.55;1843586;77;20971;-59
2021/07/05 10:36:33;;;;;;;4.42;3.90;;;;;;;24.31;67.80;97484.26;1809476;77;21479;-59
2021/07/05 10:39:04;;;;;;;6.62;3.90;;;;;;;24.30;67.80;97478.61;1789168;80;21006;-59
2021/07/05 10:41:39;;;;;;;4.40;3.60;;;;;;;24.34;67.40;97478.01;1805022;78;20967;-59
2021/07/05 10:44:09;;;;;;;4.00;3.70;;;;;;;24.31;67.49;97473.31;1820232;78;20919;-59
2021/07/05 10:46:54;;;;;;;4.85;3.47;;;;;;;24.41;68.28;97469.00;1815947;79;20884;-60
2021/07/05 10:49:36;;;;;;;5.17;3.98;;;;;;;24.54;67.75;97475.65;1799920;77;22125;-59
2021/07/05 10:52:06;;;;;;;7.33;3.77;;;;;;;24.64;67.37;97479.52;1763458;80;21402;-60
2021/07/05 10:54:52;;;;;;;4.62;3.55;;;;;;;24.69;67.62;97486.75;1757408;80;21356;-60
2021/07/05 10:57:39;;;;;;;3.95;3.22;;;;;;;24.83;67.96;97483.22;1776623;80;20935;-58
2021/07/05 11:00:18;;;;;;;3.95;3.65;;;;;;;24.97;66.55;97479.07;1779412;80;20924;-59
2021/07/05 11:02:44;;;;;;;5.80;4.15;;;;;;;25.04;65.79;97483.16;1773596;81;21198;-59
2021/07/05 11:05:41;;;;;;;5.58;3.90;;;;;;;25.10;65.31;97484.33;1774398;80;20987;-59
2021/07/05 11:08:36;;;;;;;5.15;3.77;;;;;;;25.18;64.48;97479.00;1775310;80;20924;-61
2021/07/05 11:11:25;;;;;;;5.78;3.37;;;;;;;25.31;64.75;97488.35;1747639;81;21616;-61
2021/07/05 11:14:30;;;;;;;4.62;3.20;;;;;;;25.41;64.10;97479.30;1769808;80;21061;-59
2021/07/05 11:17:16;;;;;;;6.40;3.35;;;;;;;25.58;64.38;97468.05;1777360;80;21756;-60
2021/07/05 11:19:48;;;;;;;3.77;3.37;;;;;;;25.74;63.47;97465.63;1764317;80;20905;-60
2021/07/05 11:22:26;;;;;;;4.00;3.40;;;;;;;25.85;63.17;97466.91;1774243;80;20893;-60
2021/07/05 11:25:21;;;;;;;3.87;3.47;;;;;;;25.99;61.85;97472.30;1780711;80;21541;-59
2021/07/05 11:28:02;;;;;;;4.53;3.70;;;;;;;25.99;61.58;97476.41;1776997;80;20960;-60
2021/07/05 11:30:36;;;;;;;5.78;3.35;;;;;;;25.83;60.92;97473.39;1777630;80;21113;-63
2021/07/05 11:33:13;;;;;;;4.42;3.45;;;;;;;25.64;61.31;97472.73;1786230;80;21560;-58
2021/07/05 11:35:53;;;;;;;6.10;3.47;;;;;;;25.56;62.77;97466.31;1838316;77;21082;-60
2021/07/05 11:38:39;;;;;;;5.28;3.70;;;;;;;25.45;62.14;97467.75;1841189;78;20904;-61
2021/07/05 11:41:16;;;;;;;3.45;3.12;;;;;;;25.34;63.34;97467.00;1841267;78;20833;-59
2021/07/05 11:43:58;;;;;;;6.37;3.20;;;;;;;25.38;63.50;97466.39;1841132;78;21070;-62
2021/07/05 11:46:33;;;;;;;4.22;3.33;;;;;;;25.59;62.78;97460.81;1841112;77;20825;-59
2021/07/05 11:49:05;;;;;;;3.62;3.30;;;;;;;25.87;60.27;97459.05;1841354;78;21019;-58
2021/07/05 11:51:39;;;;;;;5.20;3.35;;;;;;;26.05;59.75;97459.72;1841249;78;20920;-58
2021/07/05 11:54:25;;;;;;;5.47;3.40;;;;;;;26.19;58.78;97458.27;1841204;78;20884;-57
2021/07/05 11:56:57;;;;;;;3.83;3.40;;;;;;;26.43;60.06;97451.16;1841421;78;25021;-58
2021/07/05 11:59:27;;;;;;;4.55;3.40;;;;;;;26.78;59.12;97450.66;1840480;78;20864;-58
2021/07/05 12:02:14;;;;;;;3.70;3.12;;;;;;;27.04;57.75;97441.11;1841435;78;20916;-59
2021/07/05 12:04:44;;;;;;;3.55;3.20;;;;;;;27.25;58.22;97441.43;1841108;78;21457;-58
2021/07/05 12:07:16;;;;;;;3.62;3.25;;;;;;;27.48;57.76;97439.41;1841256;77;20955;-60
2021/07/05 12:09:44;;;;;;;3.62;3.27;;;;;;;27.68;56.39;97441.06;1841249;78;21087;-59
2021/07/05 12:12:19;;;;;;;4.53;3.15;;;;;;;27.80;54.39;97438.33;1841401;78;20944;-60
2021/07/05 12:14:47;;;;;;;4.10;3.27;;;;;;;27.92;53.87;97436.38;1841123;78;21415;-59
2021/07/05 12:17:16;;;;;;;4.30;3.40;;;;;;;28.04;53.83;97438.58;1841466;78;20901;-59
2021/07/05 12:19:46;;;;;;;3.58;3.02;;;;;;;28.09;53.76;97438.11;1841076;78;20959;-60
2021/07/05 12:22:18;;;;;;;5.15;3.05;;;;;;;28.21;54.02;97439.48;1841599;78;21058;-62
2021/07/05 12:24:51;;;;;;;4.05;3.17;;;;;;;28.37;54.05;97448.64;1841155;78;20873;-58
2021/07/05 12:27:27;;;;;;;5.72;3.05;;;;;;;28.51;52.51;97445.44;1841392;78;20829;-59
2021/07/05 12:29:58;;;;;;;3.87;3.08;;;;;;;28.51;51.84;97445.44;1841204;78;20912;-61
2021/07/05 12:32:33;;;;;;;4.45;3.00;;;;;;;28.50;52.45;97451.55;1841551;78;20896;-61
2021/07/05 12:35:07;;;;;;;5.53;2.70;;;;;;;28.56;51.80;97444.96;1841684;78;21751;-59
2021/07/05 12:37:45;;;;;;;3.00;2.70;;;;;;;28.43;49.85;97447.53;1841455;78;20935;-62
2021/07/05 12:40:21;;;;;;;2.85;2.65;;;;;;;28.00;50.07;97440.62;1841402;78;21411;-59
2021/07/05 12:42:57;;;;;;;3.02;2.83;;;;;;;27.60;50.99;97445.13;1841215;78;20881;-61
2021/07/05 12:45:39;;;;;;;4.12;2.77;;;;;;;27.53;51.25;97432.06;1841169;77;20955;-61
2021/07/05 12:48:20;;;;;;;3.77;2.65;;;;;;;27.80;51.15;97436.95;1841201;78;21110;-61
2021/07/05 12:51:03;;;;;;;3.77;2.92;;;;;;;28.08;49.56;97433.00;1841161;78;20895;-60
2021/07/05 12:53:41;;;;;;;4.22;2.98;;;;;;;28.29;50.27;97430.67;1841225;78;20943;-61
2021/07/05 12:56:18;;;;;;;3.83;2.92;;;;;;;28.48;49.67;97429.78;1841192;78;20861;-62
2021/07/05 12:58:48;;;;;;;3.40;3.10;;;;;;;28.55;49.56;97433.78;1841050;78;20943;-59
2021/07/05 13:01:33;;;;;;;4.00;3.00;;;;;;;28.63;49.72;97432.46;1841197;78;20868;-59
2021/07/05 13:04:09;;;;;;;3.22;2.70;;;;;;;28.77;49.74;97434.95;1841152;78;20994;-59
2021/07/05 13:06:40;;;;;;;3.90;2.65;;;;;;;28.91;48.54;97445.70;1841198;78;20900;-64
2021/07/05 13:09:10;;;;;;;3.80;2.80;;;;;;;28.93;48.78;97444.08;1839260;77;20881;-60
2021/07/05 13:11:43;;;;;;;5.12;3.15;;;;;;;28.59;49.59;97442.19;1820726;78;20825;-62
2021/07/05 13:14:15;;;;;;;3.72;2.83;;;;;;;28.16;49.17;97444.09;1841212;78;21075;-64
2021/07/05 13:16:43;;;;;;;3.80;2.50;;;;;;;27.70;50.63;97437.89;1840247;77;20915;-63
2021/07/05 13:19:14;;;;;;;4.22;2.70;;;;;;;27.41;50.59;97442.25;1841165;78;20924;-64
2021/07/05 13:21:41;;;;;;;3.47;2.92;;;;;;;27.42;51.12;97445.17;1841096;77;21459;-64
2021/07/05 13:24:27;;;;;;;3.15;2.80;;;;;;;27.61;51.06;97440.38;1841178;78;20849;-61
2021/07/05 13:27:00;;;;;;;5.78;3.00;;;;;;;27.95;50.45;97445.19;1841163;78;21111;-62
2021/07/05 13:29:33;;;;;;;3.90;2.85;;;;;;;28.30;49.43;97443.25;1841065;78;20888;-63
2021/07/05 13:32:03;;;;;;;6.10;3.20;;;;;;;28.63;49.34;97437.97;1841649;78;20916;-65
2021/07/05 13:34:43;;;;;;;3.30;3.00;;;;;;;29.02;47.89;97445.66;1839770;77;21372;-59
